Time;durP1;ratioP1;P1;durP2;ratioP2;P2;SDS_P1;SDS_P2;PMS_P1;PMS_P2;Temp;Humidity;BMP_temperature;BMP_pressure;BME280_temperature;BME280_humidity;BME280_pressure;Samples;Min_cycle;Max_cycle;Signal;HPM_P1;HPM_P2
2021/07/23 00:01:54;;;;;;;8.70;6.30;;;17.10;81.80;;;;;;5115072;28;20092;-66
2021/07/23 00:04:20;;;;;;;9.33;6.20;;;17.10;82.00;;;;;;5115256;28;20369;-66
2021/07/23 00:06:45;;;;;;;10.53;7.40;;;17.10;82.20;;;;;;5114973;28;20048;-66
2021/07/23 00:09:12;;;;;;;8.73;6.83;;;17.20;82.50;;;;;;5115219;28;20441;-66
2021/07/23 00:11:38;;;;;;;9.30;6.90;;;17.10;82.70;;;;;;5115300;28;20058;-66
2021/07/23 00:14:04;;;;;;;10.53;6.90;;;17.20;82.90;;;;;;5114489;28;20716;-66
2021/07/23 00:16:29;;;;;;;9.03;6.60;;;17.10;83.10;;;;;;5115468;28;20075;-66
2021/07/23 00:18:55;;;;;;;10.13;7.13;;;17.10;83.40;;;;;;5115315;28;20051;-65
2021/07/23 00:21:20;;;;;;;9.80;7.07;;;17.20;83.60;;;;;;5114193;28;20051;-65
2021/07/23 00:23:46;;;;;;;9.87;7.47;;;17.20;83.90;;;;;;5115013;28;20055;-66
2021/07/23 00:26:13;;;;;;;8.77;6.87;;;17.20;84.00;;;;;;5115102;28;20066;-65
2021/07/23 00:28:42;;;;;;;12.83;6.70;;;17.20;84.30;;;;;;5114499;28;20044;-66
2021/07/23 00:31:08;;;;;;;9.53;6.40;;;17.20;84.30;;;;;;5114958;28;20054;-66
2021/07/23 00:33:34;;;;;;;9.17;6.30;;;17.20;84.30;;;;;;5115443;28;20055;-66
2021/07/23 00:36:01;;;;;;;7.47;6.40;;;17.30;84.40;;;;;;5114137;28;20044;-66
2021/07/23 00:38:27;;;;;;;9.83;6.97;;;17.20;84.50;;;;;;5114860;28;20513;-66
2021/07/23 00:40:52;;;;;;;10.80;7.53;;;17.20;84.80;;;;;;5115078;28;20127;-66
2021/07/23 00:43:18;;;;;;;8.77;6.03;;;17.30;84.90;;;;;;5114070;28;20126;-66
2021/07/23 00:45:43;;;;;;;11.13;8.00;;;17.20;84.90;;;;;;5115050;28;20043;-66
2021/07/23 00:48:09;;;;;;;9.03;7.23;;;17.20;85.20;;;;;;5114661;28;20063;-66
2021/07/23 00:50:35;;;;;;;9.07;7.47;;;17.20;85.40;;;;;;5114008;28;20196;-66
2021/07/23 00:53:04;;;;;;;9.27;7.83;;;17.20;85.60;;;;;;5114273;28;20052;-66
2021/07/23 00:55:29;;;;;;;11.30;8.10;;;17.20;85.80;;;;;;5114841;28;20463;-66
2021/07/23 00:57:57;;;;;;;11.00;7.77;;;17.20;85.90;;;;;;5113357;28;20106;-66
2021/07/23 01:00:23;;;;;;;8.73;7.23;;;17.20;86.10;;;;;;5114399;28;20047;-66
2021/07/23 01:02:52;;;;;;;8.13;6.80;;;17.20;86.30;;;;;;5114559;28;20112;-66
2021/07/23 01:05:18;;;;;;;8.83;7.10;;;17.20;86.50;;;;;;5113572;28;20047;-66
2021/07/23 01:07:45;;;;;;;10.53;6.67;;;17.20;86.70;;;;;;5114471;28;20070;-66
2021/07/23 01:10:11;;;;;;;10.17;7.17;;;17.20;86.90;;;;;;5113637;28;20051;-66
2021/07/23 01:12:37;;;;;;;8.57;7.47;;;17.20;87.10;;;;;;5114388;28;20047;-66
2021/07/23 01:15:04;;;;;;;9.03;7.43;;;17.20;88.00;;;;;;5114208;28;20051;-66
2021/07/23 01:17:32;;;;;;;10.77;7.60;;;17.20;87.10;;;;;;5113682;28;20467;-66
2021/07/23 01:20:00;;;;;;;9.17;7.10;;;17.30;87.20;;;;;;5114037;28;20044;-66
2021/07/23 01:22:28;;;;;;;12.47;7.70;;;17.20;87.30;;;;;;5113951;28;20142;-66
2021/07/23 01:24:55;;;;;;;11.70;8.37;;;17.20;87.40;;;;;;5113158;28;20080;-66
2021/07/23 01:27:21;;;;;;;12.47;9.47;;;17.20;87.50;;;;;;5113757;28;20420;-66
2021/07/23 01:29:47;;;;;;;11.43;9.33;;;17.20;87.60;;;;;;5114015;28;20168;-66
2021/07/23 01:32:13;;;;;;;10.83;8.60;;;17.20;87.90;;;;;;5112871;28;20139;-65
2021/07/23 01:34:39;;;;;;;14.00;9.60;;;17.20;88.00;;;;;;5113771;28;20066;-66
2021/07/23 01:37:05;;;;;;;10.50;9.17;;;17.20;88.20;;;;;;5113814;28;20070;-66
2021/07/23 01:39:32;;;;;;;12.97;9.80;;;17.20;88.40;;;;;;5113244;28;20059;-66
2021/07/23 01:41:58;;;;;;;11.57;9.83;;;17.10;88.50;;;;;;5113897;28;20044;-66
2021/07/23 01:44:24;;;;;;;12.70;8.40;;;17.10;88.50;;;;;;5113388;28;20048;-66
2021/07/23 01:46:49;;;;;;;11.63;10.10;;;17.10;88.50;;;;;;5113025;28;20039;-66
2021/07/23 01:49:15;;;;;;;11.83;10.53;;;17.10;88.80;;;;;;5113345;28;20058;-66
2021/07/23 01:51:41;;;;;;;14.87;10.73;;;17.10;89.00;;;;;;5113789;28;20039;-66
2021/07/23 01:54:07;;;;;;;12.40;10.33;;;17.10;89.00;;;;;;5112739;28;20054;-66
2021/07/23 01:56:32;;;;;;;11.57;9.90;;;17.10;89.10;;;;;;5113474;28;20411;-66
2021/07/23 01:58:58;;;;;;;15.23;10.37;;;17.10;89.10;;;;;;5113597;28;20069;-66
2021/07/23 02:01:23;;;;;;;12.77;10.97;;;17.10;89.30;;;;;;5112345;28;20134;-66
2021/07/23 02:03:49;;;;;;;12.10;10.37;;;17.10;89.40;;;;;;5113369;28;20082;-66
2021/07/23 02:06:15;;;;;;;10.50;9.33;;;17.10;89.50;;;;;;5112869;28;20067;-66
2021/07/23 02:08:41;;;;;;;12.50;9.90;;;17.10;89.60;;;;;;5112240;28;20100;-66
2021/07/23 02:11:07;;;;;;;13.33;9.97;;;17.10;89.60;;;;;;5113045;28;20442;-66
2021/07/23 02:13:33;;;;;;;15.47;10.40;;;17.10;89.70;;;;;;5112289;28;20058;-66
2021/07/23 02:16:02;;;;;;;12.47;10.07;;;17.00;89.70;;;;;;5113077;28;20101;-66
2021/07/23 02:18:28;;;;;;;11.50;9.60;;;17.00;89.80;;;;;;5113163;28;20047;-66
2021/07/23 02:20:54;;;;;;;13.93;9.83;;;17.00;89.80;;;;;;5112356;28;20040;-65
2021/07/23 02:23:19;;;;;;;13.40;9.77;;;17.00;89.90;;;;;;5112537;28;20142;-66
2021/07/23 02:25:45;;;;;;;14.03;10.67;;;17.00;90.00;;;;;;5113002;28;20059;-66
2021/07/23 02:28:10;;;;;;;14.10;10.70;;;17.00;90.00;;;;;;5112015;28;20075;-66
2021/07/23 02:30:38;;;;;;;12.60;10.60;;;17.00;90.00;;;;;;5113044;28;20452;-66
2021/07/23 02:33:07;;;;;;;14.80;10.40;;;17.00;90.00;;;;;;5112437;28;20422;-67
2021/07/23 02:35:32;;;;;;;13.00;10.23;;;17.00;90.00;;;;;;5112128;28;20039;-66
2021/07/23 02:37:58;;;;;;;13.77;10.97;;;17.00;90.10;;;;;;5113050;28;20100;-66
2021/07/23 02:40:24;;;;;;;13.20;9.70;;;17.00;90.10;;;;;;5112408;28;20065;-66
2021/07/23 02:42:49;;;;;;;14.03;10.30;;;17.00;90.20;;;;;;5112070;28;20080;-66
2021/07/23 02:45:21;;;;;;;11.10;8.93;;;17.00;90.20;;;;;;5112488;28;20093;-66
2021/07/23 02:47:48;;;;;;;10.60;9.03;;;17.00;90.30;;;;;;5112582;28;20435;-66
2021/07/23 02:50:14;;;;;;;9.83;8.47;;;17.00;90.20;;;;;;5111554;28;20040;-66
2021/07/23 02:52:40;;;;;;;10.67;8.53;;;16.90;90.20;;;;;;5112451;28;20074;-66
2021/07/23 02:55:06;;;;;;;9.53;8.50;;;16.90;90.10;;;;;;5112495;28;20051;-66
2021/07/23 02:57:32;;;;;;;11.37;8.00;;;16.90;90.00;;;;;;5111481;28;20519;-66
2021/07/23 02:59:57;;;;;;;8.83;7.87;;;16.90;89.60;;;;;;5112261;28;20071;-66
2021/07/23 03:02:23;;;;;;;9.63;7.80;;;17.00;89.40;;;;;;5112068;28;21050;-66
2021/07/23 03:04:48;;;;;;;12.13;7.47;;;17.00;89.40;;;;;;5111799;28;20126;-66
2021/07/23 03:07:14;;;;;;;10.97;7.90;;;17.00;89.20;;;;;;5112129;28;20048;-66
2021/07/23 03:09:40;;;;;;;9.83;7.67;;;17.00;89.10;;;;;;5111651;28;20051;-66
2021/07/23 03:12:06;;;;;;;8.40;7.10;;;17.00;89.00;;;;;;5112030;28;20483;-66
2021/07/23 03:14:32;;;;;;;10.20;7.77;;;17.00;88.90;;;;;;5112482;28;20092;-66
2021/07/23 03:16:57;;;;;;;10.00;6.97;;;17.00;88.90;;;;;;5111447;28;20119;-66
2021/07/23 03:19:23;;;;;;;8.57;6.97;;;17.00;88.90;;;;;;5111837;28;20135;-66
2021/07/23 03:21:48;;;;;;;10.03;7.00;;;17.00;88.80;;;;;;5112640;28;20055;-66
2021/07/23 03:24:14;;;;;;;10.27;6.80;;;17.00;88.70;;;;;;5111238;28;20429;-66
2021/07/23 03:26:42;;;;;;;8.77;6.73;;;17.00;88.70;;;;;;5112476;28;20081;-66
2021/07/23 03:29:08;;;;;;;9.10;6.80;;;17.00;88.40;;;;;;5111798;28;20541;-66
2021/07/23 03:31:33;;;;;;;8.10;6.53;;;16.90;88.20;;;;;;5111584;28;20048;-66
2021/07/23 03:33:59;;;;;;;10.60;6.50;;;16.90;88.30;;;;;;5111925;28;20048;-66
2021/07/23 03:36:25;;;;;;;11.27;7.03;;;16.90;88.30;;;;;;5112222;28;20320;-66
2021/07/23 03:38:50;;;;;;;11.57;6.97;;;16.80;88.20;;;;;;5111814;28;20048;-66
2021/07/23 03:41:17;;;;;;;10.00;6.83;;;16.90;88.10;;;;;;5112086;28;20071;-66
2021/07/23 03:43:42;;;;;;;8.90;6.70;;;16.80;88.00;;;;;;5111940;28;20353;-66
2021/07/23 03:46:08;;;;;;;10.40;6.90;;;16.80;88.10;;;;;;5110739;28;20050;-66
2021/07/23 03:48:34;;;;;;;8.50;6.60;;;16.80;88.20;;;;;;5112055;28;20055;-66
2021/07/23 03:50:59;;;;;;;8.97;6.70;;;16.80;88.10;;;;;;5111978;28;20052;-66
2021/07/23 03:53:26;;;;;;;12.67;7.63;;;16.80;88.20;;;;;;5111252;28;20052;-66
2021/07/23 03:55:52;;;;;;;14.23;7.40;;;16.80;88.20;;;;;;5112003;28;20048;-66
2021/07/23 03:58:17;;;;;;;10.97;7.00;;;16.80;88.10;;;;;;5111451;28;20051;-66
2021/07/23 04:00:46;;;;;;;9.23;6.60;;;16.80;88.20;;;;;;5111106;28;20047;-66
2021/07/23 04:03:11;;;;;;;9.13;6.77;;;16.80;88.10;;;;;;5111970;28;20044;-66
2021/07/23 04:05:40;;;;;;;11.17;7.30;;;16.80;88.00;;;;;;5111892;28;20048;-66
2021/07/23 04:08:11;;;;;;;9.70;6.87;;;16.80;88.00;;;;;;5111107;28;20047;-66
2021/07/23 04:10:36;;;;;;;10.83;7.83;;;16.80;88.00;;;;;;5111634;28;20362;-66
2021/07/23 04:13:02;;;;;;;13.17;7.07;;;16.80;88.10;;;;;;5110543;28;20500;-65
2021/07/23 04:15:28;;;;;;;12.53;8.43;;;16.80;88.20;;;;;;5111920;28;20047;-65
2021/07/23 04:17:54;;;;;;;12.33;7.43;;;16.70;88.10;;;;;;5110837;28;20052;-65
2021/07/23 04:20:21;;;;;;;10.03;7.27;;;16.70;88.30;;;;;;5110657;28;20470;-65
2021/07/23 04:22:46;;;;;;;8.77;7.47;;;16.70;88.30;;;;;;5109527;28;20056;-65
2021/07/23 04:25:12;;;;;;;11.40;7.67;;;16.80;88.40;;;;;;5111389;28;20388;-65
2021/07/23 04:27:38;;;;;;;11.57;7.60;;;16.70;88.20;;;;;;5110821;28;20044;-66
2021/07/23 04:30:05;;;;;;;10.57;7.57;;;16.80;88.20;;;;;;5111545;28;20100;-65
2021/07/23 04:32:30;;;;;;;10.83;7.73;;;16.70;88.20;;;;;;5112881;28;20533;-65
2021/07/23 04:34:56;;;;;;;10.47;8.03;;;16.70;88.10;;;;;;5114226;28;20056;-66
2021/07/23 04:37:21;;;;;;;11.37;7.57;;;16.70;88.00;;;;;;5114608;28;20544;-65
2021/07/23 04:39:56;;;;;;;10.23;7.60;;;16.70;87.90;;;;;;5110308;28;20085;-66
2021/07/23 04:42:22;;;;;;;11.27;8.80;;;16.70;87.80;;;;;;5113845;28;20122;-66
2021/07/23 04:44:47;;;;;;;10.07;8.67;;;16.70;87.80;;;;;;5114480;28;20039;-66
2021/07/23 04:47:14;;;;;;;10.70;8.00;;;16.80;87.80;;;;;;5114257;28;20066;-66
2021/07/23 04:49:39;;;;;;;10.83;8.17;;;16.80;87.70;;;;;;5113631;28;20486;-66
2021/07/23 04:52:05;;;;;;;11.50;8.57;;;16.80;87.50;;;;;;5114036;28;20062;-65
2021/07/23 04:54:32;;;;;;;13.57;8.67;;;16.80;87.40;;;;;;5114570;28;20083;-66
2021/07/23 04:56:58;;;;;;;11.90;8.53;;;16.80;87.30;;;;;;5113329;28;20086;-66
2021/07/23 04:59:24;;;;;;;11.53;8.70;;;16.90;87.20;;;;;;5113949;28;20180;-66
2021/07/23 05:01:49;;;;;;;12.10;8.57;;;16.90;87.00;;;;;;5114214;28;20134;-66
2021/07/23 05:04:16;;;;;;;11.70;9.63;;;16.90;86.80;;;;;;5113306;28;20048;-66
2021/07/23 05:06:42;;;;;;;10.20;8.87;;;16.90;86.80;;;;;;5113906;28;20040;-66
2021/07/23 05:09:08;;;;;;;12.93;8.80;;;16.90;86.90;;;;;;5112300;28;20124;-66
2021/07/23 05:11:34;;;;;;;14.00;9.57;;;16.90;86.70;;;;;;5113663;28;20077;-65
2021/07/23 05:14:01;;;;;;;10.23;8.93;;;17.00;86.60;;;;;;5113704;28;20523;-65
2021/07/23 05:16:27;;;;;;;12.70;9.53;;;17.00;86.20;;;;;;5112834;28;20035;-65
2021/07/23 05:19:11;;;;;;;10.25;8.65;;;17.00;86.20;;;;;;5113074;28;20051;-66
2021/07/23 05:21:38;;;;;;;12.37;10.53;;;17.00;86.10;;;;;;5112654;28;20464;-66
2021/07/23 05:24:08;;;;;;;;;;;17.00;85.90;;;;;;5111081;28;20058;-66
2021/07/23 05:26:36;;;;;;;11.40;8.97;;;17.00;85.50;;;;;;5113037;28;19928;-65
2021/07/23 05:29:07;;;;;;;12.47;9.83;;;17.00;85.60;;;;;;5112510;28;20104;-66
2021/07/23 05:31:39;;;;;;;10.83;8.93;;;17.00;85.40;;;;;;5110866;28;20063;-66
2021/07/23 05:34:06;;;;;;;13.03;10.17;;;17.10;85.40;;;;;;5112927;28;20151;-66
2021/07/23 05:36:31;;;;;;;15.20;9.83;;;17.00;85.40;;;;;;5113017;28;20142;-66
2021/07/23 05:38:57;;;;;;;10.77;9.60;;;17.00;85.50;;;;;;5112813;28;20051;-66
2021/07/23 05:41:23;;;;;;;11.43;9.20;;;17.00;85.50;;;;;;5112487;28;20421;-66
2021/07/23 05:43:49;;;;;;;11.23;8.87;;;17.00;85.50;;;;;;5112670;28;20051;-66
2021/07/23 05:46:15;;;;;;;14.60;10.17;;;17.00;85.80;;;;;;5111806;28;20066;-66
2021/07/23 05:48:41;;;;;;;12.53;9.50;;;17.00;86.10;;;;;;5111991;28;20490;-66
2021/07/23 05:51:09;;;;;;;11.43;8.63;;;17.00;86.30;;;;;;5112091;28;20082;-65
2021/07/23 05:53:35;;;;;;;13.23;9.07;;;17.00;86.40;;;;;;5111656;28;20669;-66
2021/07/23 05:56:02;;;;;;;11.30;9.10;;;17.00;86.30;;;;;;5112109;28;20054;-66
2021/07/23 05:58:28;;;;;;;11.43;9.57;;;17.00;86.20;;;;;;5112091;28;20100;-66
2021/07/23 06:00:55;;;;;;;14.33;9.70;;;17.00;86.10;;;;;;5112280;27;20039;-65
2021/07/23 06:03:20;;;;;;;10.50;8.40;;;17.00;86.10;;;;;;5111520;28;20044;-66
2021/07/23 06:05:46;;;;;;;11.23;8.70;;;17.00;86.00;;;;;;5111606;28;20070;-66
2021/07/23 06:08:12;;;;;;;10.87;8.70;;;17.00;85.80;;;;;;5112329;28;20428;-66
2021/07/23 06:10:37;;;;;;;13.47;9.03;;;17.10;85.90;;;;;;5112041;28;20048;-66
2021/07/23 06:13:03;;;;;;;12.53;9.10;;;17.10;85.80;;;;;;5111022;28;20071;-66
2021/07/23 06:15:32;;;;;;;11.47;9.23;;;17.10;85.70;;;;;;5111816;28;20555;-66
2021/07/23 06:17:59;;;;;;;10.90;8.83;;;17.10;85.60;;;;;;5112467;28;21169;-65
2021/07/23 06:20:24;;;;;;;10.53;8.53;;;17.20;85.60;;;;;;5111142;28;20051;-65
2021/07/23 06:22:59;;;;;;;13.20;8.90;;;17.10;86.20;;;;;;5111890;28;20510;-66
2021/07/23 06:25:25;;;;;;;11.50;8.70;;;17.20;85.20;;;;;;5112047;28;20043;-66
2021/07/23 06:27:51;;;;;;;11.30;8.80;;;17.20;85.20;;;;;;5111256;28;20044;-66
2021/07/23 06:30:17;;;;;;;9.97;8.37;;;17.20;85.30;;;;;;5111517;28;20039;-66
2021/07/23 06:32:43;;;;;;;12.00;9.13;;;17.30;85.40;;;;;;5111862;28;20083;-66
2021/07/23 06:35:09;;;;;;;12.60;9.10;;;17.20;85.50;;;;;;5110800;28;20573;-66
2021/07/23 06:37:35;;;;;;;11.63;9.53;;;17.30;85.70;;;;;;5111829;28;20669;-66
2021/07/23 06:40:01;;;;;;;13.00;9.80;;;17.30;85.80;;;;;;5111390;28;20054;-66
2021/07/23 06:42:27;;;;;;;14.07;10.93;;;17.30;85.80;;;;;;5110427;28;20514;-66
2021/07/23 06:44:53;;;;;;;13.00;10.33;;;17.30;85.90;;;;;;5111661;28;20035;-66
2021/07/23 06:47:19;;;;;;;13.20;10.40;;;17.30;86.00;;;;;;5111151;28;20119;-66
2021/07/23 06:49:45;;;;;;;11.47;9.67;;;17.30;86.20;;;;;;5111373;28;20040;-66
2021/07/23 06:52:11;;;;;;;15.17;12.10;;;17.30;86.20;;;;;;5112002;28;20048;-66
2021/07/23 06:54:37;;;;;;;16.73;13.50;;;17.30;86.20;;;;;;5111513;28;20138;-68
2021/07/23 06:57:06;;;;;;;14.60;13.07;;;17.20;86.10;;;;;;5112021;28;20090;-66
2021/07/23 06:59:34;;;;;;;15.00;13.03;;;17.30;86.20;;;;;;5112378;28;20073;-66
2021/07/23 07:02:02;;;;;;;14.90;13.37;;;17.30;86.40;;;;;;5111626;28;20058;-65
2021/07/23 07:04:28;;;;;;;16.90;15.03;;;17.30;86.60;;;;;;5112027;28;20525;-66
2021/07/23 07:06:55;;;;;;;17.50;15.70;;;17.30;86.80;;;;;;5112249;28;20039;-66
2021/07/23 07:09:24;;;;;;;16.57;14.57;;;17.30;86.80;;;;;;5111157;28;20051;-66
2021/07/23 07:11:51;;;;;;;16.70;15.07;;;17.30;86.90;;;;;;5112147;28;20043;-66
2021/07/23 07:14:16;;;;;;;16.37;14.27;;;17.20;87.10;;;;;;5111801;28;20202;-66
2021/07/23 07:16:42;;;;;;;18.83;15.17;;;17.20;87.20;;;;;;5111528;28;20050;-66
2021/07/23 07:19:08;;;;;;;17.23;15.13;;;17.30;87.30;;;;;;5111863;28;20069;-66
2021/07/23 07:21:34;;;;;;;17.43;14.70;;;17.30;87.50;;;;;;5111544;28;20506;-66
2021/07/23 07:24:00;;;;;;;16.67;14.87;;;17.30;87.40;;;;;;5111062;28;20044;-66
2021/07/23 07:26:28;;;;;;;15.63;14.13;;;17.30;87.30;;;;;;5111834;28;20058;-66
2021/07/23 07:28:55;;;;;;;16.27;13.43;;;17.30;87.20;;;;;;5111671;28;20051;-66
2021/07/23 07:31:20;;;;;;;15.57;13.97;;;17.20;87.20;;;;;;5110920;28;20507;-66
2021/07/23 07:33:46;;;;;;;17.80;14.27;;;17.30;87.20;;;;;;5111959;28;20051;-66
2021/07/23 07:36:17;;;;;;;14.93;13.30;;;17.30;87.20;;;;;;5111670;28;20039;-66
2021/07/23 07:38:46;;;;;;;24.05;13.73;;;17.30;87.30;;;;;;5111251;28;20055;-66
2021/07/23 07:41:19;;;;;;;17.23;14.40;;;17.40;87.40;;;;;;5111528;28;20051;-66
2021/07/23 07:43:45;;;;;;;17.63;14.23;;;17.40;87.30;;;;;;5112090;28;20039;-66
2021/07/23 07:46:10;;;;;;;16.43;13.80;;;17.50;87.20;;;;;;5110899;28;20063;-66
2021/07/23 07:48:36;;;;;;;16.80;14.10;;;17.50;87.00;;;;;;5111934;28;20441;-66
2021/07/23 07:51:02;;;;;;;14.97;13.40;;;17.50;86.90;;;;;;5110296;28;20396;-66
2021/07/23 07:53:27;;;;;;;17.70;12.63;;;17.50;86.70;;;;;;5111015;28;20539;-66
2021/07/23 07:55:53;;;;;;;17.37;13.97;;;17.60;86.70;;;;;;5110948;28;20040;-66
2021/07/23 07:58:18;;;;;;;14.87;11.40;;;17.60;86.50;;;;;;5110564;28;20134;-66
2021/07/23 08:00:44;;;;;;;13.17;11.70;;;17.70;86.40;;;;;;5111858;28;20399;-66
2021/07/23 08:03:10;;;;;;;15.63;12.53;;;17.70;86.00;;;;;;5111588;28;20043;-66
2021/07/23 08:05:35;;;;;;;13.70;12.30;;;17.80;85.90;;;;;;5111258;28;20487;-66
2021/07/23 08:08:03;;;;;;;12.23;10.63;;;17.80;85.70;;;;;;5115360;28;20104;-66
2021/07/23 08:10:33;;;;;;;13.00;11.67;;;17.80;85.50;;;;;;5115511;28;20050;-65
2021/07/23 08:12:58;;;;;;;15.57;12.67;;;17.80;85.40;;;;;;5115059;28;20116;-66
2021/07/23 08:15:24;;;;;;;13.17;10.23;;;17.90;85.10;;;;;;5116005;28;20043;-66
2021/07/23 08:17:52;;;;;;;16.07;12.13;;;17.80;85.00;;;;;;5115439;28;20060;-65
2021/07/23 08:20:18;;;;;;;13.40;12.00;;;17.90;85.20;;;;;;5114265;28;20487;-65
2021/07/23 08:22:45;;;;;;;12.57;10.63;;;17.90;85.60;;;;;;5115142;28;20051;-66
2021/07/23 08:25:11;;;;;;;13.43;10.57;;;18.00;85.40;;;;;;5114629;28;20058;-65
2021/07/23 08:27:36;;;;;;;14.53;10.30;;;18.00;84.80;;;;;;5114466;28;20334;-66
2021/07/23 08:30:03;;;;;;;14.87;11.83;;;18.00;84.50;;;;;;5115142;27;20052;-66
2021/07/23 08:32:36;;;;;;;14.87;10.33;;;18.10;84.70;;;;;;5115476;28;20089;-66
2021/07/23 08:35:03;;;;;;;13.30;10.57;;;18.10;84.50;;;;;;5114115;28;20047;-65
2021/07/23 08:37:28;;;;;;;13.43;10.97;;;18.10;84.20;;;;;;5114555;28;20104;-66
2021/07/23 08:39:54;;;;;;;16.10;11.00;;;18.10;84.10;;;;;;5115187;28;20484;-66
2021/07/23 08:42:31;;;;;;;13.33;9.13;;;18.10;84.30;;;;;;5113646;28;20050;-66
2021/07/23 08:44:58;;;;;;;12.80;10.07;;;18.10;83.90;;;;;;5115147;28;20048;-66
2021/07/23 08:47:24;;;;;;;11.13;9.60;;;18.10;83.80;;;;;;5113127;28;20056;-66
2021/07/23 08:49:51;;;;;;;9.23;8.10;;;18.10;83.40;;;;;;5113427;28;20056;-66
2021/07/23 08:52:36;;;;;;;10.63;9.00;;;18.20;83.20;;;;;;5111324;28;20141;-66
2021/07/23 08:55:02;;;;;;;12.30;9.97;;;18.20;83.30;;;;;;5112141;28;20104;-66
2021/07/23 08:57:28;;;;;;;12.67;10.27;;;18.20;83.20;;;;;;5112423;28;20580;-67
2021/07/23 08:59:54;;;;;;;11.77;10.20;;;18.30;83.10;;;;;;5112326;28;20181;-66
2021/07/23 09:02:19;;;;;;;14.47;9.87;;;18.30;82.90;;;;;;5111136;28;20130;-66
2021/07/23 09:04:45;;;;;;;11.10;9.90;;;18.40;83.00;;;;;;5113083;28;20476;-66
2021/07/23 09:07:20;;;;;;;13.17;9.30;;;18.40;83.00;;;;;;5114172;28;20050;-66
2021/07/23 09:10:03;;;;;;;14.03;10.30;;;18.50;82.60;;;;;;5114184;28;20051;-66
2021/07/23 09:12:43;;;;;;;10.70;9.00;;;18.60;82.60;;;;;;5114256;28;20101;-67
2021/07/23 09:15:30;;;;;;;10.97;9.60;;;18.80;82.30;;;;;;5113620;28;20484;-66
2021/07/23 09:17:57;;;;;;;14.13;9.27;;;18.90;81.30;;;;;;5113722;28;20040;-66
2021/07/23 09:20:28;;;;;;;13.10;9.47;;;18.90;81.20;;;;;;5113992;28;20051;-66
2021/07/23 09:22:57;;;;;;;12.18;9.32;;;19.00;80.20;;;;;;5113238;28;20051;-67
2021/07/23 09:25:31;;;;;;;12.13;8.97;;;19.10;79.90;;;;;;5114003;28;20052;-67
2021/07/23 09:27:57;;;;;;;10.00;8.60;;;19.10;79.40;;;;;;5114107;28;20086;-66
2021/07/23 09:30:40;;;;;;;8.93;8.03;;;19.10;79.40;;;;;;5112790;28;20075;-66
2021/07/23 09:33:06;;;;;;;11.17;8.83;;;19.20;79.10;;;;;;5113360;28;20071;-67
2021/07/23 09:35:31;;;;;;;10.97;8.60;;;19.20;78.40;;;;;;5113832;28;20491;-66
2021/07/23 09:37:58;;;;;;;13.70;9.27;;;19.20;78.50;;;;;;5112882;28;20043;-67
2021/07/23 09:40:24;;;;;;;13.33;9.63;;;19.20;78.30;;;;;;5113272;28;20385;-66
2021/07/23 09:42:59;;;;;;;12.10;8.93;;;19.20;78.50;;;;;;5113690;28;20048;-66
2021/07/23 09:45:30;;;;;;;11.80;8.73;;;19.20;78.10;;;;;;5112764;28;20134;-66
2021/07/23 09:48:08;;;;;;;13.93;9.15;;;19.20;78.40;;;;;;5113601;28;20419;-66
2021/07/23 09:50:39;;;;;;;11.80;8.90;;;19.20;78.10;;;;;;5112632;28;20051;-66
2021/07/23 09:53:07;;;;;;;9.70;7.38;;;19.30;78.20;;;;;;5113341;28;20052;-66
2021/07/23 09:55:34;;;;;;;14.53;7.20;;;19.30;77.60;;;;;;5113433;28;20148;-66
2021/07/23 09:58:03;;;;;;;9.73;7.70;;;19.30;76.70;;;;;;5112416;28;20051;-66
2021/07/23 10:00:32;;;;;;;9.63;7.47;;;19.40;75.80;;;;;;5113396;28;20138;-66
2021/07/23 10:02:58;;;;;;;8.53;7.63;;;19.40;75.60;;;;;;5113140;28;20508;-66
2021/07/23 10:05:27;;;;;;;9.07;7.67;;;19.40;75.90;;;;;;5111590;28;20047;-66
2021/07/23 10:08:01;;;;;;;9.83;7.90;;;19.50;75.50;;;;;;5113287;28;20144;-66
2021/07/23 10:10:27;;;;;;;11.60;7.30;;;19.50;75.40;;;;;;5113271;28;20044;-66
2021/07/23 10:12:55;;;;;;;10.57;8.00;;;19.40;75.50;;;;;;5111924;28;20055;-66
2021/07/23 10:15:20;;;;;;;9.70;7.70;;;19.50;75.40;;;;;;5112531;28;20401;-66
2021/07/23 10:17:50;;;;;;;10.43;7.20;;;19.50;74.70;;;;;;5112501;28;20058;-66
2021/07/23 10:20:19;;;;;;;8.63;7.67;;;19.60;74.70;;;;;;5112023;28;20059;-66
2021/07/23 10:22:51;;;;;;;10.43;7.07;;;19.60;75.10;;;;;;5112523;28;20313;-66
2021/07/23 10:25:17;;;;;;;10.57;7.57;;;19.70;75.10;;;;;;5112509;28;20044;-66
2021/07/23 10:27:45;;;;;;;10.30;7.33;;;19.70;74.10;;;;;;5111912;28;20187;-67
2021/07/23 10:30:29;;;;;;;9.07;7.50;;;19.80;73.10;;;;;;5111390;28;20044;-67
2021/07/23 10:32:54;;;;;;;9.37;7.63;;;19.80;72.60;;;;;;5111841;28;20520;-67
2021/07/23 10:35:20;;;;;;;9.93;6.80;;;19.70;73.30;;;;;;5112134;28;20124;-66
2021/07/23 10:37:51;;;;;;;12.30;7.03;;;19.70;73.10;;;;;;5112388;28;20043;-66
2021/07/23 10:40:18;;;;;;;10.25;7.22;;;19.70;72.80;;;;;;5111579;28;20162;-66
2021/07/23 10:42:45;;;;;;;10.10;7.10;;;19.60;73.10;;;;;;5112202;28;20139;-67
2021/07/23 10:45:14;;;;;;;9.50;7.63;;;19.60;72.60;;;;;;5112266;28;20134;-66
2021/07/23 10:47:49;;;;;;;10.33;7.43;;;19.60;72.80;;;;;;5111725;28;20427;-66
2021/07/23 10:50:21;;;;;;;9.17;6.77;;;19.60;72.90;;;;;;5112015;28;20043;-66
2021/07/23 10:52:47;;;;;;;11.00;7.63;;;19.70;73.20;;;;;;5112348;28;20051;-66
2021/07/23 10:55:24;;;;;;;9.50;6.93;;;19.70;72.60;;;;;;5111386;28;20484;-66
2021/07/23 10:58:12;;;;;;;10.57;7.00;;;19.70;72.10;;;;;;5112440;28;20048;-66
2021/07/23 11:00:47;;;;;;;8.97;6.10;;;19.70;71.80;;;;;;5112115;28;20043;-66
2021/07/23 11:03:40;;;;;;;9.00;6.57;;;19.60;72.20;;;;;;5112041;28;20402;-66
2021/07/23 11:06:20;;;;;;;9.27;6.67;;;19.50;71.80;;;;;;5112039;27;20052;-67
2021/07/23 11:08:54;;;;;;;12.17;6.37;;;19.40;72.30;;;;;;5111425;28;20052;-66
2021/07/23 11:11:25;;;;;;;8.50;6.30;;;19.40;72.20;;;;;;5111939;28;20058;-66
2021/07/23 11:13:51;;;;;;;9.02;7.55;;;19.40;72.30;;;;;;5111923;28;20058;-66
2021/07/23 11:16:19;;;;;;;8.40;6.23;;;19.40;72.50;;;;;;5111131;28;20413;-66
2021/07/23 11:18:55;;;;;;;11.03;6.90;;;19.50;72.80;;;;;;5111977;28;20063;-66
2021/07/23 11:21:24;;;;;;;7.60;6.30;;;19.60;72.50;;;;;;5111762;28;20055;-68
2021/07/23 11:23:50;;;;;;;9.23;6.17;;;19.70;71.70;;;;;;5111101;28;20466;-66
2021/07/23 11:26:23;;;;;;;9.03;6.20;;;19.70;71.30;;;;;;5111383;28;20047;-67
2021/07/23 11:28:51;;;;;;;11.53;7.03;;;19.90;71.00;;;;;;5112040;28;20051;-67
2021/07/23 11:31:33;;;;;;;9.50;6.43;;;19.90;71.00;;;;;;5110853;28;20075;-66
2021/07/23 11:34:18;;;;;;;8.27;6.07;;;20.10;71.60;;;;;;5111484;28;20056;-66
2021/07/23 11:36:44;;;;;;;9.33;6.07;;;20.20;71.30;;;;;;5110941;28;20450;-66
2021/07/23 11:39:09;;;;;;;8.90;6.50;;;20.30;71.00;;;;;;5111499;28;20063;-67
2021/07/23 11:41:35;;;;;;;10.83;6.60;;;20.30;70.50;;;;;;5113864;28;20580;-67
2021/07/23 11:44:08;;;;;;;9.53;6.20;;;20.30;70.10;;;;;;5114796;28;20055;-66
2021/07/23 11:46:38;;;;;;;10.73;6.40;;;20.30;70.30;;;;;;5115826;28;20055;-66
2021/07/23 11:49:05;;;;;;;9.47;6.40;;;20.20;69.70;;;;;;5115740;28;20043;-67
2021/07/23 11:51:41;;;;;;;8.63;5.87;;;20.10;69.50;;;;;;5115244;28;20047;-67
2021/07/23 11:54:07;;;;;;;8.97;6.37;;;19.90;69.60;;;;;;5115367;28;20476;-66
2021/07/23 11:56:33;;;;;;;8.97;5.83;;;19.80;70.20;;;;;;5115934;28;20152;-65
2021/07/23 11:59:03;;;;;;;9.90;6.53;;;19.70;70.80;;;;;;5114600;28;20047;-65
2021/07/23 12:01:36;;;;;;;8.43;5.97;;;19.70;71.10;;;;;;5115654;28;20047;-65
2021/07/23 12:04:02;;;;;;;10.40;6.70;;;19.70;71.20;;;;;;5115202;28;20450;-65
2021/07/23 12:06:31;;;;;;;9.10;5.77;;;19.70;71.70;;;;;;5115306;28;20043;-66
2021/07/23 12:09:01;;;;;;;9.07;5.93;;;19.70;71.90;;;;;;5115513;28;20409;-66
2021/07/23 12:11:30;;;;;;;10.37;6.67;;;19.60;72.40;;;;;;5115178;28;20063;-66
2021/07/23 12:13:56;;;;;;;8.70;6.23;;;19.60;72.80;;;;;;5115099;28;20096;-66
2021/07/23 12:16:22;;;;;;;10.43;6.10;;;19.60;73.00;;;;;;5114889;28;20431;-66
2021/07/23 12:18:58;;;;;;;7.33;5.60;;;19.60;72.80;;;;;;5114602;28;20055;-66
2021/07/23 12:21:26;;;;;;;8.90;6.27;;;19.60;73.30;;;;;;5115018;28;20113;-66
2021/07/23 12:23:56;;;;;;;11.97;7.03;;;19.50;74.10;;;;;;5115249;28;20060;-68
2021/07/23 12:26:27;;;;;;;7.80;6.30;;;19.40;74.80;;;;;;5114149;28;20043;-66
2021/07/23 12:28:54;;;;;;;12.07;6.03;;;19.40;75.50;;;;;;5115014;28;20043;-66
2021/07/23 12:31:20;;;;;;;10.47;6.37;;;19.30;76.00;;;;;;5114995;28;20159;-66
2021/07/23 12:33:45;;;;;;;10.87;5.20;;;19.30;76.50;;;;;;5114087;28;20147;-65
2021/07/23 12:36:23;;;;;;;8.70;5.90;;;19.30;76.70;;;;;;5114799;28;20047;-66
2021/07/23 12:39:02;;;;;;;9.80;5.63;;;19.20;77.00;;;;;;5115199;28;20062;-66
2021/07/23 12:41:28;;;;;;;7.80;5.10;;;19.20;76.80;;;;;;5113944;28;20040;-66